Time;durP1;ratioP1;P1;durP2;ratioP2;P2;SDS_P1;SDS_P2;PMS_P1;PMS_P2;Temp;Humidity;BMP_temperature;BMP_pressure;BME280_temperature;BME280_humidity;BME280_pressure;Samples;Min_cycle;Max_cycle;Signal;HPM_P1;HPM_P2
2021/03/26 00:01:11;;;;;;;52.25;22.75;;;;;;;8.43;100.00;101499.72;4967901;28;20121;-76
2021/03/26 00:03:41;;;;;;;49.80;22.38;;;;;;;8.35;100.00;101494.69;4991478;28;20034;-76
2021/03/26 00:06:10;;;;;;;41.58;22.30;;;;;;;8.31;100.00;101498.44;4989736;28;20033;-76
2021/03/26 00:08:36;;;;;;;47.00;23.23;;;;;;;8.28;100.00;101486.94;4966451;28;20045;-75
2021/03/26 00:11:02;;;;;;;43.13;21.85;;;;;;;8.22;100.00;101493.41;4954924;28;20038;-76
2021/03/26 00:13:28;;;;;;;49.38;22.08;;;;;;;8.22;100.00;101489.88;4982757;28;20053;-76
2021/03/26 00:15:54;;;;;;;54.05;22.48;;;;;;;8.17;100.00;101486.53;4980706;28;20053;-75
2021/03/26 00:18:19;;;;;;;47.47;21.85;;;;;;;8.13;100.00;101488.47;4981977;28;20030;-75
2021/03/26 00:20:45;;;;;;;43.70;22.50;;;;;;;8.09;100.00;101493.06;4977808;28;20038;-75
2021/03/26 00:23:10;;;;;;;47.15;23.48;;;;;;;8.00;100.00;101477.41;4973060;28;20804;-76
2021/03/26 00:25:36;;;;;;;41.88;21.13;;;;;;;7.95;100.00;101487.44;4980265;28;20045;-76
2021/03/26 00:28:04;;;;;;;44.00;21.75;;;;;;;7.92;100.00;101486.69;4979859;28;20034;-76
2021/03/26 00:30:30;;;;;;;46.85;21.10;;;;;;;7.87;100.00;101491.34;4975845;28;20031;-75
2021/03/26 00:32:55;;;;;;;50.45;23.10;;;;;;;7.83;100.00;101485.28;4969206;28;20061;-75
2021/03/26 00:35:23;;;;;;;45.83;20.58;;;;;;;7.78;100.00;101476.53;4973059;28;20743;-75
2021/03/26 00:37:48;;;;;;;42.22;21.85;;;;;;;7.75;100.00;101482.03;4973210;28;20042;-76
2021/03/26 00:40:17;;;;;;;42.15;21.08;;;;;;;7.73;100.00;101478.53;4981680;28;20038;-75
2021/03/26 00:42:42;;;;;;;49.22;23.48;;;;;;;7.66;100.00;101477.91;4977890;28;20108;-75
2021/03/26 00:45:11;;;;;;;43.17;21.25;;;;;;;7.64;100.00;101478.94;4987774;28;20636;-76
2021/03/26 00:47:37;;;;;;;49.65;23.25;;;;;;;7.61;100.00;101485.25;4977332;28;20139;-76
2021/03/26 00:50:12;;;;;;;42.42;20.38;;;;;;;7.58;100.00;101468.47;4966421;28;20116;-76
2021/03/26 00:52:37;;;;;;;43.63;21.75;;;;;;;7.56;100.00;101475.69;4974368;28;20037;-76
2021/03/26 00:55:04;;;;;;;45.47;21.85;;;;;;;7.53;100.00;101470.47;4961140;28;20026;-76
2021/03/26 00:57:30;;;;;;;45.13;22.10;;;;;;;7.51;100.00;101472.31;4971622;28;20037;-75
2021/03/26 00:59:55;;;;;;;49.65;21.80;;;;;;;7.50;100.00;101470.59;4964073;28;20057;-76
2021/03/26 01:02:21;;;;;;;41.40;20.65;;;;;;;7.47;100.00;101463.53;4986754;28;20046;-76
2021/03/26 01:04:46;;;;;;;46.20;22.25;;;;;;;7.45;100.00;101468.09;4969346;28;20038;-75
2021/03/26 01:07:12;;;;;;;43.58;20.75;;;;;;;7.42;100.00;101464.66;4971557;28;20089;-75
2021/03/26 01:09:37;;;;;;;44.33;20.38;;;;;;;7.38;100.00;101460.38;4974674;28;20486;-75
2021/03/26 01:12:04;;;;;;;41.47;22.23;;;;;;;7.31;100.00;101455.28;4990452;28;20040;-76
2021/03/26 01:14:29;;;;;;;43.15;20.98;;;;;;;7.26;100.00;101451.91;4997530;28;20038;-75
2021/03/26 01:16:55;;;;;;;45.15;21.95;;;;;;;7.22;100.00;101458.28;4960805;28;20038;-76
2021/03/26 01:19:23;;;;;;;41.17;21.23;;;;;;;7.18;100.00;101454.00;4988621;28;20076;-75
2021/03/26 01:21:48;;;;;;;46.83;21.70;;;;;;;7.15;100.00;101458.63;4963678;28;20038;-75
2021/03/26 01:24:17;;;;;;;49.38;22.90;;;;;;;7.12;100.00;101451.56;4967434;28;22249;-75
2021/03/26 01:26:47;;;;;;;42.63;21.92;;;;;;;7.09;100.00;101443.69;4990209;28;20527;-75
2021/03/26 01:29:25;;;;;;;47.88;22.20;;;;;;;7.03;100.00;101443.06;4957922;28;20042;-75
2021/03/26 01:31:58;;;;;;;47.00;22.33;;;;;;;6.99;100.00;101452.97;4970961;28;20053;-75
2021/03/26 01:34:24;;;;;;;48.00;23.48;;;;;;;6.97;100.00;101446.84;4969432;28;20045;-75
2021/03/26 01:36:55;;;;;;;45.45;22.38;;;;;;;6.91;100.00;101439.91;4992395;28;20065;-75
2021/03/26 01:39:21;;;;;;;45.47;21.13;;;;;;;6.90;100.00;101440.88;4956434;28;20061;-75
2021/03/26 01:41:52;;;;;;;45.40;21.30;;;;;;;6.86;100.00;101433.00;4980604;28;21739;-76
2021/03/26 01:44:25;;;;;;;46.85;22.15;;;;;;;6.84;100.00;101432.22;4990595;28;20157;-75
2021/03/26 01:46:52;;;;;;;50.60;23.80;;;;;;;6.80;100.00;101425.22;4978399;28;20037;-75
2021/03/26 01:49:23;;;;;;;46.90;22.93;;;;;;;6.76;100.00;101427.16;4954064;28;20049;-76
2021/03/26 01:51:57;;;;;;;49.25;23.60;;;;;;;6.74;100.00;101425.47;4983557;28;20080;-76
2021/03/26 01:54:25;;;;;;;52.83;23.30;;;;;;;6.73;100.00;101426.38;4982851;28;20492;-75
2021/03/26 01:56:52;;;;;;;45.05;21.88;;;;;;;6.69;100.00;101427.44;4978774;28;20182;-75
2021/03/26 01:59:24;;;;;;;44.38;21.58;;;;;;;6.66;100.00;101422.22;4973972;28;20018;-75
2021/03/26 02:02:06;;;;;;;48.72;24.45;;;;;;;6.65;100.00;101415.16;4978221;28;20372;-75
2021/03/26 02:04:46;;;;;;;64.68;23.02;;;;;;;6.58;100.00;101408.28;4978311;28;20047;-75
2021/03/26 02:07:37;;;;;;;47.63;23.48;;;;;;;6.54;100.00;101417.34;4974862;28;20614;-75
2021/03/26 02:10:05;;;;;;;49.88;23.70;;;;;;;6.49;100.00;101405.03;4986210;28;20101;-75
2021/03/26 02:12:34;;;;;;;45.40;22.83;;;;;;;6.43;100.00;101399.91;4978296;28;20030;-75
2021/03/26 02:15:14;;;;;;;50.50;24.77;;;;;;;6.39;100.00;101405.44;4977818;28;20022;-75
2021/03/26 02:17:40;;;;;;;44.55;22.50;;;;;;;6.37;100.00;101400.13;4980435;28;20023;-75
2021/03/26 02:20:23;;;;;;;54.13;25.10;;;;;;;6.34;100.00;101394.94;4960234;28;20037;-76
2021/03/26 02:22:51;;;;;;;65.40;27.15;;;;;;;6.31;100.00;101394.16;4957520;28;20026;-75
2021/03/26 02:25:22;;;;;;;54.10;25.13;;;;;;;6.29;100.00;101391.56;4962052;28;20616;-77
2021/03/26 02:27:48;;;;;;;69.35;29.83;;;;;;;6.31;100.00;101392.38;4983530;28;20151;-75
2021/03/26 02:30:23;;;;;;;62.10;28.63;;;;;;;6.29;100.00;101388.91;4975237;28;20561;-75
2021/03/26 02:32:50;;;;;;;70.10;31.60;;;;;;;6.27;100.00;101388.06;4971782;28;20038;-76
2021/03/26 02:35:39;;;;;;;61.00;26.02;;;;;;;6.26;100.00;101385.47;4984069;28;20442;-76
2021/03/26 02:39:08;;;;;;;60.78;26.88;;;;;;;6.19;100.00;101374.13;4956773;28;20054;-75
2021/03/26 02:41:40;;;;;;;53.55;26.23;;;;;;;6.17;100.00;101381.34;4989276;28;20037;-75
2021/03/26 02:44:18;;;;;;;52.88;26.35;;;;;;;6.15;100.00;101377.84;4957895;28;20109;-75
2021/03/26 02:46:55;;;;;;;51.65;25.17;;;;;;;6.14;100.00;101386.78;4973992;28;20092;-75
2021/03/26 02:49:38;;;;;;;54.92;25.98;;;;;;;6.12;100.00;101388.59;4968949;28;20558;-75
2021/03/26 02:52:19;;;;;;;55.63;25.63;;;;;;;6.08;100.00;101389.66;4976744;28;20030;-75
2021/03/26 02:55:02;;;;;;;53.90;25.20;;;;;;;6.05;100.00;101393.28;4979249;28;20694;-75
2021/03/26 02:57:54;;;;;;;62.70;25.85;;;;;;;6.04;100.00;101391.56;4978618;28;20681;-75
2021/03/26 03:00:37;;;;;;;52.88;25.60;;;;;;;6.02;100.00;101392.53;4973089;28;20027;-75
2021/03/26 03:03:06;;;;;;;61.70;27.52;;;;;;;6.00;100.00;101389.03;4976727;28;20034;-75
2021/03/26 03:05:46;;;;;;;53.85;24.98;;;;;;;5.97;100.00;101384.69;4970799;28;20044;-76
2021/03/26 03:08:28;;;;;;;64.07;26.23;;;;;;;5.96;100.00;101382.09;4965474;28;20066;-75
2021/03/26 03:11:30;;;;;;;65.13;28.13;;;;;;;5.96;100.00;101379.41;4994090;28;20069;-76
2021/03/26 03:14:11;;;;;;;62.38;27.50;;;;;;;5.94;100.00;101376.81;4989959;28;20037;-75
2021/03/26 03:16:47;;;;;;;52.35;25.90;;;;;;;5.93;100.00;101382.19;4978688;28;20033;-75
2021/03/26 03:19:28;;;;;;;60.20;27.98;;;;;;;5.92;100.00;101380.47;4974074;28;20442;-75
2021/03/26 03:22:02;;;;;;;64.13;27.23;;;;;;;5.92;100.00;101377.78;4968361;28;20804;-75
2021/03/26 03:24:37;;;;;;;57.38;27.33;;;;;;;5.90;100.00;101377.84;4978550;28;20082;-76
2021/03/26 03:27:19;;;;;;;51.28;25.77;;;;;;;5.89;100.00;101376.09;4971752;28;20116;-75
2021/03/26 03:29:49;;;;;;;55.43;25.60;;;;;;;5.87;100.00;101364.63;4972852;28;20030;-75
2021/03/26 03:33:13;;;;;;;57.83;26.80;;;;;;;5.86;100.00;101370.84;4985307;28;20614;-76
2021/03/26 03:35:54;;;;;;;52.95;25.70;;;;;;;5.84;100.00;101371.81;4942008;28;20161;-75
2021/03/26 03:38:35;;;;;;;64.57;27.35;;;;;;;5.82;100.00;101363.88;4973147;28;20038;-75
2021/03/26 03:41:14;;;;;;;55.65;25.20;;;;;;;5.81;100.00;101369.25;4973419;28;20026;-76
2021/03/26 03:43:57;;;;;;;56.03;26.38;;;;;;;5.77;100.00;101365.81;4983133;28;20038;-75
2021/03/26 03:46:32;;;;;;;59.00;26.30;;;;;;;5.75;100.00;101370.31;4994316;28;20026;-75
2021/03/26 03:49:41;;;;;;;55.20;25.10;;;;;;;5.70;100.00;101366.94;4969168;28;20034;-75
2021/03/26 03:52:34;;;;;;;56.83;25.67;;;;;;;5.66;100.00;101373.31;4962964;28;20112;-75
2021/03/26 03:55:13;;;;;;;54.65;25.13;;;;;;;5.63;100.00;101366.28;4967350;28;20089;-75
2021/03/26 03:58:03;;;;;;;53.17;25.05;;;;;;;5.60;100.00;101363.75;4987929;28;20118;-75
2021/03/26 04:00:34;;;;;;;59.15;26.15;;;;;;;5.56;100.00;101361.22;4983393;28;20053;-76
2021/03/26 04:03:46;;;;;;;52.65;24.98;;;;;;;5.51;100.00;101356.06;4968753;28;20031;-75
2021/03/26 04:06:18;;;;;;;56.88;25.80;;;;;;;5.44;100.00;101351.84;4929752;28;20049;-76
2021/03/26 04:08:56;;;;;;;55.80;26.65;;;;;;;5.41;100.00;101345.75;4955207;28;20151;-75
2021/03/26 04:11:22;;;;;;;57.78;25.52;;;;;;;5.36;100.00;101347.72;4955682;28;20411;-75
2021/03/26 04:13:58;;;;;;;50.50;24.45;;;;;;;5.33;100.00;101342.47;4970186;28;20035;-75
2021/03/26 04:16:26;;;;;;;53.45;24.95;;;;;;;5.28;100.00;101347.94;4975814;28;20105;-75
2021/03/26 04:19:28;;;;;;;58.85;25.50;;;;;;;5.25;100.00;101340.06;4959403;28;20137;-76
2021/03/26 04:22:03;;;;;;;61.88;26.27;;;;;;;5.21;100.00;101339.28;4970748;28;20060;-76
2021/03/26 04:24:57;;;;;;;53.10;24.48;;;;;;;5.18;100.00;101344.75;4968007;28;20042;-75
2021/03/26 04:27:40;;;;;;;58.95;26.10;;;;;;;5.14;100.00;101342.19;4987784;28;20076;-76
2021/03/26 04:30:28;;;;;;;57.75;26.90;;;;;;;5.12;100.00;101339.56;4977819;28;20166;-75
2021/03/26 04:33:03;;;;;;;53.25;25.10;;;;;;;5.10;100.00;101336.13;4968688;28;20032;-75
2021/03/26 04:35:29;;;;;;;58.90;25.70;;;;;;;5.11;100.00;101337.00;4981950;28;20026;-75
2021/03/26 04:38:22;;;;;;;64.50;27.10;;;;;;;5.11;100.00;101335.19;4978833;28;20041;-75
2021/03/26 04:40:55;;;;;;;70.80;27.38;;;;;;;5.08;100.00;101342.41;4967927;28;20038;-76
2021/03/26 04:43:40;;;;;;;70.78;29.88;;;;;;;5.08;100.00;101339.72;4975266;28;20027;-75
2021/03/26 04:46:22;;;;;;;60.28;27.85;;;;;;;5.02;100.00;101339.94;4974113;28;20030;-75
2021/03/26 04:49:09;;;;;;;66.93;28.35;;;;;;;4.97;100.00;101344.53;4976344;28;20157;-75
2021/03/26 04:51:49;;;;;;;59.58;27.05;;;;;;;4.94;100.00;101337.50;4985574;28;20044;-75
2021/03/26 04:54:45;;;;;;;68.35;29.45;;;;;;;4.95;100.00;101341.91;4967196;28;20061;-75
2021/03/26 04:57:47;;;;;;;81.15;35.20;;;;;;;5.08;100.00;101331.75;4982284;28;20057;-75
2021/03/26 05:00:19;;;;;;;81.72;34.25;;;;;;;5.02;100.00;101338.13;4955078;28;20034;-75
2021/03/26 05:03:16;;;;;;;81.55;32.92;;;;;;;5.02;100.00;101331.94;4965979;28;20035;-75
2021/03/26 05:05:51;;;;;;;86.07;32.90;;;;;;;5.07;100.00;101338.84;4975784;28;20034;-75
2021/03/26 05:08:41;;;;;;;75.03;33.13;;;;;;;5.02;100.00;101329.28;4985726;28;20088;-75
2021/03/26 05:11:32;;;;;;;72.50;31.35;;;;;;;4.96;100.00;101332.13;4984840;28;20042;-75
2021/03/26 05:14:04;;;;;;;79.20;32.90;;;;;;;4.95;100.00;101330.41;4969832;28;20026;-75
2021/03/26 05:17:03;;;;;;;74.53;33.65;;;;;;;5.12;100.00;101339.56;4980142;28;20081;-76
2021/03/26 05:19:44;;;;;;;92.18;36.30;;;;;;;5.15;100.00;101322.66;4989101;28;20499;-77
2021/03/26 05:22:19;;;;;;;86.82;36.45;;;;;;;5.30;100.00;101327.50;4977163;28;20070;-75
2021/03/26 05:25:17;;;;;;;86.90;36.40;;;;;;;5.36;100.00;101327.28;4982635;28;20043;-74
2021/03/26 05:28:20;;;;;;;86.20;36.55;;;;;;;5.44;100.00;101322.56;4933251;28;20050;-76
2021/03/26 05:30:47;;;;;;;86.72;36.08;;;;;;;5.40;100.00;101323.59;4954906;28;20034;-74
2021/03/26 05:33:26;;;;;;;89.40;35.83;;;;;;;5.46;100.00;101325.19;4959910;28;20122;-74
2021/03/26 05:36:03;;;;;;;85.15;35.90;;;;;;;5.45;100.00;101318.09;4975408;28;20035;-74
2021/03/26 05:39:09;;;;;;;85.35;36.10;;;;;;;5.48;100.00;101324.22;4978072;28;20047;-74
2021/03/26 05:42:16;;;;;;;90.85;36.20;;;;;;;5.45;100.00;101321.63;4964378;28;20539;-74
2021/03/26 05:45:07;;;;;;;89.18;36.85;;;;;;;5.54;100.00;101321.34;4979139;28;20046;-74
2021/03/26 05:48:09;;;;;;;87.05;35.88;;;;;;;5.54;100.00;101321.34;4987657;28;20034;-74
2021/03/26 05:51:00;;;;;;;80.13;34.42;;;;;;;5.55;100.00;101320.44;4969956;28;20121;-74
2021/03/26 05:54:00;;;;;;;83.53;35.30;;;;;;;5.48;100.00;101326.88;4969271;28;20030;-74
2021/03/26 05:56:56;;;;;;;82.68;35.75;;;;;;;5.54;100.00;101326.66;4971810;28;20037;-74
2021/03/26 05:59:23;;;;;;;88.35;37.65;;;;;;;5.54;100.00;101326.66;4969491;28;20057;-74
2021/03/26 06:02:05;;;;;;;86.45;35.92;;;;;;;5.64;100.00;101328.09;4976166;28;20038;-74
2021/03/26 06:05:27;;;;;;;83.70;35.17;;;;;;;5.80;100.00;101327.56;4984020;28;20057;-74
2021/03/26 06:08:56;;;;;;;83.03;34.67;;;;;;;5.77;100.00;101327.66;4927285;29;20129;-74
2021/03/26 06:12:08;;;;;;;88.57;37.50;;;;;;;5.86;100.00;101322.03;4922263;29;20135;-74
2021/03/26 06:15:22;;;;;;;76.45;34.17;;;;;;;5.98;100.00;101324.28;4984598;28;20069;-74
2021/03/26 06:18:24;;;;;;;78.38;35.03;;;;;;;5.98;100.00;101321.63;4998183;28;20054;-74
2021/03/26 06:21:24;;;;;;;81.95;34.20;;;;;;;6.09;100.00;101330.09;4989651;28;20045;-74
2021/03/26 06:24:46;;;;;;;74.15;34.05;;;;;;;6.18;100.00;101326.22;4992488;28;20092;-74
2021/03/26 06:27:41;;;;;;;81.05;33.53;;;;;;;6.19;100.00;101320.84;4976205;28;20060;-74
2021/03/26 06:30:25;;;;;;;80.00;33.78;;;;;;;6.38;100.00;101315.69;4970462;28;20530;-75
2021/03/26 06:33:31;;;;;;;76.53;32.22;;;;;;;6.48;100.00;101317.09;4977117;28;20409;-74
2021/03/26 06:36:34;;;;;;;82.22;34.20;;;;;;;6.49;100.00;101313.47;4971740;28;20041;-74
2021/03/26 06:39:39;;;;;;;73.70;33.08;;;;;;;6.70;100.00;101319.81;4985235;28;21290;-75
2021/03/26 06:42:25;;;;;;;76.60;33.28;;;;;;;6.85;100.00;101319.22;4985826;28;20069;-75
2021/03/26 06:45:21;;;;;;;69.72;32.72;;;;;;;7.10;100.00;101317.28;4970015;28;20034;-75
2021/03/26 06:48:17;;;;;;;70.03;31.00;;;;;;;7.39;100.00;101328.59;4977039;28;20500;-75
2021/03/26 06:50:43;;;;;;;66.95;28.75;;;;;;;7.66;100.00;101322.06;4987243;28;20077;-75
2021/03/26 06:53:25;;;;;;;63.70;27.75;;;;;;;8.04;100.00;101320.41;4959913;28;20058;-75
2021/03/26 06:56:13;;;;;;;67.45;27.42;;;;;;;8.57;100.00;101317.16;4973750;28;20062;-75
2021/03/26 06:59:01;;;;;;;60.83;27.77;;;;;;;9.15;97.69;101320.59;4982300;28;20076;-75
2021/03/26 07:01:49;;;;;;;58.22;25.60;;;;;;;9.74;93.37;101317.63;4981907;28;20041;-75
2021/03/26 07:04:15;;;;;;;51.55;24.95;;;;;;;10.19;90.45;101314.34;4991386;28;20035;-75
2021/03/26 07:07:00;;;;;;;51.63;25.00;;;;;;;10.70;87.86;101318.72;4978238;28;20038;-74
2021/03/26 07:09:40;;;;;;;50.20;23.83;;;;;;;11.07;82.90;101314.84;4970219;28;20026;-75
2021/03/26 07:12:11;;;;;;;50.50;23.58;;;;;;;11.30;81.80;101313.50;4972683;28;20046;-75
2021/03/26 07:14:57;;;;;;;48.40;24.30;;;;;;;11.25;80.07;101316.47;4973121;28;20435;-75
2021/03/26 07:17:38;;;;;;;46.17;23.15;;;;;;;11.69;78.50;101319.25;4983322;28;20507;-75
2021/03/26 07:20:39;;;;;;;42.03;22.10;;;;;;;12.11;77.80;101323.03;4954682;28;20042;-75
2021/03/26 07:23:31;;;;;;;45.03;22.60;;;;;;;12.32;74.45;101326.25;4974097;28;20046;-75
2021/03/26 07:26:22;;;;;;;40.70;20.83;;;;;;;12.69;74.31;101319.41;4972639;28;20076;-75
2021/03/26 07:29:28;;;;;;;42.95;20.75;;;;;;;12.87;72.70;101321.78;4996194;28;20038;-75
2021/03/26 07:32:09;;;;;;;39.17;20.65;;;;;;;13.24;70.12;101328.38;4982833;28;20034;-74
2021/03/26 07:34:52;;;;;;;41.72;20.92;;;;;;;13.38;71.30;101324.78;4994746;28;20057;-75
2021/03/26 07:37:54;;;;;;;41.90;21.33;;;;;;;13.39;69.22;101326.53;4969842;28;20086;-75
2021/03/26 07:40:41;;;;;;;36.92;20.60;;;;;;;13.21;69.80;101325.00;4987602;28;20039;-75
2021/03/26 07:43:19;;;;;;;47.63;21.80;;;;;;;13.07;70.35;101322.34;4989797;28;20038;-75
2021/03/26 07:46:15;;;;;;;38.30;20.70;;;;;;;13.49;69.27;101321.38;4988371;28;20527;-75
2021/03/26 07:49:11;;;;;;;38.25;20.40;;;;;;;13.62;69.18;101333.06;4987045;28;20080;-75
2021/03/26 07:51:51;;;;;;;35.53;20.52;;;;;;;13.65;68.54;101331.03;4952877;28;20038;-75
2021/03/26 07:54:45;;;;;;;36.45;19.73;;;;;;;13.91;68.06;101328.38;4972979;28;20022;-75
2021/03/26 07:57:27;;;;;;;41.15;19.98;;;;;;;14.00;66.77;101328.63;4976966;28;20061;-75
2021/03/26 08:00:18;;;;;;;39.95;20.70;;;;;;;14.06;67.51;101325.50;4969704;28;20050;-76
2021/03/26 08:03:12;;;;;;;41.85;21.10;;;;;;;13.94;67.60;101323.66;4983372;28;20038;-74
2021/03/26 08:06:05;;;;;;;37.10;20.40;;;;;;;13.98;67.87;101314.38;4973547;28;20031;-75
2021/03/26 08:08:52;;;;;;;34.28;18.42;;;;;;;14.53;66.28;101314.09;4972113;28;20042;-75
2021/03/26 08:11:42;;;;;;;36.70;19.33;;;;;;;14.40;65.48;101312.38;4974450;28;20038;-75
2021/03/26 08:14:24;;;;;;;32.83;17.85;;;;;;;14.39;65.00;101314.19;4990688;28;20038;-75
2021/03/26 08:17:09;;;;;;;30.98;17.45;;;;;;;15.02;62.90;101321.34;4975949;28;20129;-75
2021/03/26 08:19:43;;;;;;;32.00;15.85;;;;;;;15.22;61.19;101326.16;4977682;28;20125;-75
2021/03/26 08:22:24;;;;;;;33.88;17.13;;;;;;;15.98;62.03;101325.81;4995644;28;20532;-75
2021/03/26 08:25:01;;;;;;;26.85;15.18;;;;;;;16.04;58.72;101324.47;4993537;28;20041;-75
2021/03/26 08:27:42;;;;;;;36.40;16.45;;;;;;;16.52;57.57;101327.88;4984033;28;20432;-75
2021/03/26 08:30:32;;;;;;;28.38;15.57;;;;;;;16.44;56.40;101320.34;4994360;28;20096;-75
2021/03/26 08:33:07;;;;;;;30.83;14.02;;;;;;;16.36;55.68;101332.78;4976938;28;20493;-75
2021/03/26 08:36:00;;;;;;;22.75;13.07;;;;;;;16.60;54.37;101327.31;4976468;28;20030;-75
2021/03/26 08:38:52;;;;;;;29.73;14.32;;;;;;;16.78;55.02;101321.28;4968790;28;20054;-75
2021/03/26 08:41:25;;;;;;;28.20;14.38;;;;;;;17.06;55.17;101319.03;4978425;28;20040;-75
2021/03/26 08:43:52;;;;;;;28.42;15.27;;;;;;;17.19;54.37;101320.59;4990361;28;20502;-75
2021/03/26 08:46:26;;;;;;;24.88;14.32;;;;;;;17.13;54.21;101314.81;4986986;28;20026;-75
2021/03/26 08:49:24;;;;;;;29.52;14.13;;;;;;;17.07;53.39;101323.47;4992485;28;20088;-75
2021/03/26 08:52:17;;;;;;;25.98;13.93;;;;;;;17.29;52.33;101326.97;4949706;28;20057;-76
2021/03/26 08:55:08;;;;;;;25.60;13.05;;;;;;;17.24;54.10;101328.34;4982161;28;20499;-76
2021/03/26 08:57:46;;;;;;;31.90;14.30;;;;;;;16.79;54.17;101328.41;4976793;28;20600;-78
2021/03/26 09:00:20;;;;;;;29.75;13.98;;;;;;;16.94;54.35;101321.75;4980022;28;20030;-75
2021/03/26 09:03:18;;;;;;;26.10;13.00;;;;;;;17.42;55.22;101323.25;4994266;28;20105;-74
2021/03/26 09:06:11;;;;;;;22.63;12.07;;;;;;;17.52;54.78;101322.38;4971042;28;20058;-75
2021/03/26 09:08:40;;;;;;;;;;;;;;;17.67;53.80;101329.25;4988175;28;20034;-75
2021/03/26 09:11:20;;;;;;;23.15;10.68;;;;;;;17.47;51.68;101326.44;4967162;28;19924;-75
2021/03/26 09:13:54;;;;;;;21.13;11.45;;;;;;;17.43;51.99;101328.56;4983556;28;20065;-75
2021/03/26 09:16:32;;;;;;;18.65;10.52;;;;;;;17.57;52.22;101331.00;4985228;28;20042;-75
2021/03/26 09:19:20;;;;;;;16.88;10.05;;;;;;;17.67;52.31;101323.81;4965422;28;20502;-75
2021/03/26 09:22:08;;;;;;;18.67;9.23;;;;;;;17.65;51.19;101328.50;4986167;28;20089;-75
2021/03/26 09:25:03;;;;;;;20.13;9.57;;;;;;;17.28;51.04;101321.72;4976017;28;20475;-75
2021/03/26 09:27:31;;;;;;;17.50;8.85;;;;;;;17.20;53.28;101316.03;4988578;28;20046;-75
2021/03/26 09:30:37;;;;;;;16.60;7.75;;;;;;;16.68;51.88;101311.28;4974849;28;20055;-75
2021/03/26 09:33:14;;;;;;;20.58;8.10;;;;;;;16.97;52.27;101307.94;4943649;28;20049;-74
2021/03/26 09:35:55;;;;;;;18.08;7.03;;;;;;;17.17;51.47;101319.84;4989417;28;20062;-75
2021/03/26 09:38:35;;;;;;;18.08;6.35;;;;;;;17.35;49.14;101314.75;4981072;28;20031;-75
2021/03/26 09:41:08;;;;;;;14.18;5.95;;;;;;;17.01;49.53;101299.56;4997495;28;20069;-75
2021/03/26 09:43:44;;;;;;;15.30;6.80;;;;;;;16.96;50.97;101297.22;4985565;28;20061;-75
2021/03/26 09:46:36;;;;;;;17.80;6.53;;;;;;;16.86;51.19;101305.22;4993137;28;20113;-74
2021/03/26 09:49:26;;;;;;;13.20;5.20;;;;;;;17.09;51.74;101297.94;4981805;28;20085;-75
2021/03/26 09:51:56;;;;;;;13.93;6.15;;;;;;;17.23;51.08;101299.50;4988137;28;20089;-75
2021/03/26 09:54:38;;;;;;;21.75;6.70;;;;;;;17.45;51.12;101293.16;4998213;28;20038;-75
2021/03/26 09:57:25;;;;;;;13.73;5.70;;;;;;;17.43;49.27;101289.69;4994797;28;20045;-75
2021/03/26 10:00:22;;;;;;;11.18;6.32;;;;;;;16.92;49.05;101290.31;4984196;28;20045;-75
2021/03/26 10:03:13;;;;;;;14.35;6.43;;;;;;;16.23;51.06;101296.81;4992725;28;20112;-75
2021/03/26 10:06:01;;;;;;;16.20;6.50;;;;;;;16.41;53.07;101279.97;4978069;28;20090;-75
2021/03/26 10:08:58;;;;;;;12.70;6.28;;;;;;;16.89;52.72;101280.59;4986228;28;20176;-75
2021/03/26 10:11:32;;;;;;;14.80;5.97;;;;;;;16.52;51.39;101276.41;4979648;28;20240;-75
2021/03/26 10:13:57;;;;;;;14.95;6.00;;;;;;;16.44;52.61;101274.28;4982548;28;20096;-75
2021/03/26 10:16:50;;;;;;;12.77;6.55;;;;;;;16.61;48.01;101272.97;4969892;28;20035;-76
2021/03/26 10:19:22;;;;;;;12.13;5.30;;;;;;;16.37;51.23;101267.63;4958239;28;20050;-75
2021/03/26 10:21:54;;;;;;;18.10;5.25;;;;;;;16.37;50.47;101266.78;4983269;28;20825;-75
2021/03/26 10:24:29;;;;;;;10.93;4.30;;;;;;;16.63;48.68;101262.88;4957500;28;20038;-75
2021/03/26 10:27:12;;;;;;;26.67;5.43;;;;;;;16.49;49.01;101261.22;4984273;28;20034;-75
2021/03/26 10:29:52;;;;;;;12.18;4.20;;;;;;;16.31;49.44;101256.41;4969278;28;20749;-75
2021/03/26 10:32:24;;;;;;;16.98;4.53;;;;;;;16.22;51.68;101258.03;4989474;28;20038;-75
2021/03/26 10:34:51;;;;;;;7.53;4.65;;;;;;;16.37;54.12;101250.50;4973662;28;20085;-75
2021/03/26 10:37:41;;;;;;;11.82;4.15;;;;;;;16.59;49.42;101247.81;4996927;28;20069;-75
2021/03/26 10:40:30;;;;;;;10.02;4.63;;;;;;;16.49;49.78;101249.53;4984638;28;20545;-75
2021/03/26 10:43:06;;;;;;;10.90;3.78;;;;;;;16.23;48.82;101248.06;4969018;28;20111;-75
2021/03/26 10:45:54;;;;;;;14.13;4.80;;;;;;;16.24;50.08;101238.94;4985359;28;20033;-75
2021/03/26 10:48:32;;;;;;;10.98;4.72;;;;;;;16.08;49.87;101237.44;4988264;28;20022;-75
2021/03/26 10:51:16;;;;;;;10.98;5.10;;;;;;;16.08;51.03;101242.00;4995331;28;20068;-75
2021/03/26 10:53:48;;;;;;;12.13;5.30;;;;;;;16.33;50.42;101221.94;4986464;28;20031;-74
2021/03/26 10:56:38;;;;;;;10.80;4.30;;;;;;;16.34;51.10;101216.41;4981422;28;20038;-75
2021/03/26 10:59:16;;;;;;;13.27;5.10;;;;;;;16.63;51.87;101211.38;4988072;28;20026;-76
2021/03/26 11:01:44;;;;;;;9.43;4.60;;;;;;;16.57;50.15;101218.13;4970087;28;20018;-75
2021/03/26 11:04:21;;;;;;;9.73;3.83;;;;;;;16.08;49.35;101213.06;4981329;28;20101;-75
2021/03/26 11:06:55;;;;;;;10.07;3.88;;;;;;;16.04;50.27;101200.78;4985427;28;20041;-75
2021/03/26 11:09:26;;;;;;;9.43;4.65;;;;;;;15.93;51.88;101191.75;4984354;28;20488;-75
2021/03/26 11:12:13;;;;;;;8.32;4.03;;;;;;;16.00;48.22;101199.28;4978006;28;20406;-76
2021/03/26 11:14:38;;;;;;;13.25;3.97;;;;;;;16.01;52.58;101192.88;4974809;28;20026;-75
2021/03/26 11:17:14;;;;;;;15.52;4.90;;;;;;;16.13;50.39;101199.16;4972735;28;20472;-75
2021/03/26 11:20:04;;;;;;;10.85;4.93;;;;;;;16.04;52.13;101184.53;4986899;28;20085;-75
2021/03/26 11:22:32;;;;;;;10.68;3.88;;;;;;;16.12;51.05;101182.06;4981389;28;20031;-75
2021/03/26 11:25:19;;;;;;;12.25;4.15;;;;;;;16.30;51.18;101176.13;4991542;28;20069;-75
2021/03/26 11:27:52;;;;;;;12.35;3.78;;;;;;;16.30;49.56;101178.84;4976823;28;20720;-75
2021/03/26 11:30:21;;;;;;;13.52;3.95;;;;;;;16.23;49.14;101178.50;4974859;28;20502;-77
2021/03/26 11:32:52;;;;;;;11.70;3.80;;;;;;;16.17;49.11;101169.00;4993674;28;20072;-76
2021/03/26 11:35:20;;;;;;;9.18;3.63;;;;;;;16.24;49.23;101163.06;4990873;28;20054;-74
2021/03/26 11:37:59;;;;;;;7.18;3.60;;;;;;;16.23;49.99;101161.38;4990696;28;20046;-75
2021/03/26 11:40:35;;;;;;;16.17;3.90;;;;;;;16.26;49.84;101161.13;4986235;28;20486;-75
2021/03/26 11:43:24;;;;;;;9.23;3.80;;;;;;;16.28;48.80;101159.16;4973732;28;20403;-75
2021/03/26 11:45:55;;;;;;;12.85;4.20;;;;;;;16.33;48.81;101156.94;4980976;28;20058;-76
2021/03/26 11:48:33;;;;;;;9.00;3.55;;;;;;;16.29;49.66;101160.88;4972440;28;20043;-75
2021/03/26 11:51:05;;;;;;;10.27;3.78;;;;;;;16.36;49.39;101146.69;4980598;28;20058;-75
2021/03/26 11:53:58;;;;;;;10.82;4.57;;;;;;;16.45;49.90;101148.66;4971244;28;20034;-75
2021/03/26 11:56:31;;;;;;;9.52;5.03;;;;;;;16.47;48.27;101145.84;4990950;28;20026;-75
2021/03/26 11:59:09;;;;;;;10.40;4.47;;;;;;;16.41;48.49;101140.91;4993074;28;20046;-75
2021/03/26 12:01:47;;;;;;;11.20;4.13;;;;;;;16.33;48.59;101129.84;4974281;28;20038;-75
2021/03/26 12:04:21;;;;;;;23.80;5.35;;;;;;;16.42;48.26;101129.94;4980714;28;20034;-75
2021/03/26 12:06:57;;;;;;;9.45;4.28;;;;;;;16.45;48.84;101118.00;4993589;28;20049;-75
2021/03/26 12:09:38;;;;;;;14.77;5.30;;;;;;;16.58;48.26;101113.28;4971852;28;20041;-74
2021/03/26 12:12:26;;;;;;;8.23;3.97;;;;;;;16.81;48.86;101108.66;4970421;28;20042;-75
2021/03/26 12:15:06;;;;;;;17.90;7.55;;;;;;;16.78;47.74;101115.22;4994964;28;20049;-77